Mifflin County Airport


Codes: KRVL/
Name: Mifflin County Airport
City: Reedsville
Country: United States
Elevation: 819 ft.

Photos at Mifflin County Airport


   Photos courtesy of SpottingLog. You can add your own sightings and photos by signing up for a free trial today.



No photos found.

Weather at Mifflin County Airport


Time (UTC)DescriptionTempratureWindCloud coverageVisibilityPressureHumidity
21-Feb-2024 03:00Clear Sky-1°C4 mph, E4%10000m1029hPa72%
21-Feb-2024 06:00Few Clouds-2°C2 mph, SE15%10000m1030hPa82%
21-Feb-2024 09:00Scattered Clouds-4°C2 mph, SE46%10000m1030hPa91%
21-Feb-2024 12:00Broken Clouds-4°C2 mph, SE61%10000m1031hPa94%
21-Feb-2024 15:00Scattered Clouds2°C4 mph, SE32%10000m1030hPa73%
21-Feb-2024 18:00Scattered Clouds5°C9 mph, S46%10000m1027hPa63%
21-Feb-2024 21:00Broken Clouds6°C9 mph, S55%10000m1024hPa67%
22-Feb-2024 00:00Broken Clouds1°C4 mph, SE70%10000m1025hPa90%
22-Feb-2024 03:00Scattered Clouds-1°C2 mph, SE38%10000m1023hPa88%
22-Feb-2024 06:00Broken Clouds-1°C4 mph, SE69%10000m1022hPa85%
22-Feb-2024 09:00Overcast Clouds-2°C2 mph, SE95%10000m1020hPa87%
22-Feb-2024 12:00Overcast Clouds-2°C2 mph, SE98%10000m1018hPa89%
22-Feb-2024 15:00Light Rain2°C4 mph, SE100%10000m1015hPa82%
22-Feb-2024 18:00Moderate Rain1°C2 mph, SE100%10000m1011hPa96%
22-Feb-2024 21:00Light Rain2°C4 mph, SE100%10000m1007hPa97%
23-Feb-2024 00:00Light Rain2°C2 mph, SE100%4133m1005hPa99%
23-Feb-2024 03:00Light Rain2°C2 mph, SE100%1770m1001hPa99%
23-Feb-2024 06:00Light Rain2°C2 mph, SE100%1291m999hPa100%
23-Feb-2024 09:00Light Rain2°C0 mph, SW100%297m996hPa100%
23-Feb-2024 12:00Light Rain3°C7 mph, NW100%10000m998hPa98%
23-Feb-2024 15:00Overcast Clouds6°C7 mph, NW100%10000m1000hPa92%
23-Feb-2024 18:00Overcast Clouds6°C9 mph, NW100%10000m1000hPa86%
23-Feb-2024 21:00Overcast Clouds6°C11 mph, NW96%10000m1001hPa79%
24-Feb-2024 00:00Overcast Clouds3°C11 mph, NW98%10000m1004hPa76%
24-Feb-2024 03:00Overcast Clouds2°C9 mph, NW100%10000m1005hPa79%
24-Feb-2024 06:00Broken Clouds-2°C9 mph, NW62%10000m1007hPa83%
24-Feb-2024 09:00Broken Clouds-3°C9 mph, NW63%10000m1009hPa81%
24-Feb-2024 12:00Broken Clouds-4°C9 mph, NW82%10000m1012hPa77%
24-Feb-2024 15:00Overcast Clouds-3°C11 mph, NW90%10000m1014hPa57%
24-Feb-2024 18:00Broken Clouds1°C9 mph, NW60%10000m1014hPa45%
24-Feb-2024 21:00Few Clouds2°C9 mph, NW14%10000m1014hPa43%
25-Feb-2024 00:00Clear Sky-2°C2 mph, NW9%10000m1018hPa63%
25-Feb-2024 03:00Clear Sky-3°C2 mph, W2%10000m1020hPa67%
25-Feb-2024 06:00Clear Sky-4°C2 mph, SW1%10000m1021hPa71%
25-Feb-2024 09:00Clear Sky-4°C4 mph, SW4%10000m1021hPa72%
25-Feb-2024 12:00Few Clouds-4°C4 mph, S13%10000m1021hPa74%
25-Feb-2024 15:00Overcast Clouds2°C9 mph, S98%10000m1020hPa51%
25-Feb-2024 18:00Broken Clouds7°C13 mph, S58%10000m1017hPa40%
25-Feb-2024 21:00Overcast Clouds6°C11 mph, S98%10000m1015hPa51%
26-Feb-2024 00:00Overcast Clouds4°C7 mph, S95%10000m1015hPa69%